Time;durP1;ratioP1;P1;durP2;ratioP2;P2;SDS_P1;SDS_P2;PMS_P1;PMS_P2;Temp;Humidity;BMP_temperature;BMP_pressure;BME280_temperature;BME280_humidity;BME280_pressure;Samples;Min_cycle;Max_cycle;Signal;HPM_P1;HPM_P2
2022/08/30 00:03:05;;;;;;;3.80;1.90;;;;;;;;;;5000628;28;20374;-79
2022/08/30 00:05:31;;;;;;;4.07;2.38;;;;;;;;;;4980098;28;20527;-80
2022/08/30 00:07:56;;;;;;;4.55;1.92;;;;;;;;;;4979717;28;20038;-79
2022/08/30 00:10:22;;;;;;;4.75;1.70;;;;;;;;;;5012386;28;20061;-80
2022/08/30 00:12:48;;;;;;;5.50;2.28;;;;;;;;;;4979679;28;20041;-79
2022/08/30 00:15:13;;;;;;;3.33;2.00;;;;;;;;;;4996399;28;20453;-79
2022/08/30 00:17:39;;;;;;;4.47;1.98;;;;;;;;;;4979506;28;20062;-79
2022/08/30 00:20:05;;;;;;;3.85;1.80;;;;;;;;;;4963420;28;20041;-80
2022/08/30 00:22:31;;;;;;;3.80;2.10;;;;;;;;;;4978960;28;20108;-79
2022/08/30 00:24:59;;;;;;;4.07;2.08;;;;;;;;;;4995516;28;20034;-79
2022/08/30 00:27:26;;;;;;;3.97;1.80;;;;;;;;;;4963775;28;20030;-79
2022/08/30 00:29:51;;;;;;;5.25;2.08;;;;;;;;;;4979890;28;20489;-79
2022/08/30 00:32:20;;;;;;;5.13;1.95;;;;;;;;;;4962666;28;20044;-80
2022/08/30 00:34:49;;;;;;;4.40;2.00;;;;;;;;;;4979820;28;20028;-80
2022/08/30 00:37:15;;;;;;;4.28;1.98;;;;;;;;;;4995589;28;20044;-80
2022/08/30 00:39:40;;;;;;;6.32;2.85;;;;;;;;;;4991524;28;20042;-79
2022/08/30 00:42:09;;;;;;;3.58;1.88;;;;;;;;;;5005343;28;20061;-80
2022/08/30 00:44:34;;;;;;;3.20;2.03;;;;;;;;;;4979301;28;20412;-80
2022/08/30 00:47:00;;;;;;;5.90;2.65;;;;;;;;;;4981419;28;20029;-80
2022/08/30 00:49:25;;;;;;;4.80;2.20;;;;;;;;;;4979058;28;20030;-80
2022/08/30 00:51:51;;;;;;;4.55;2.40;;;;;;;;;;4978617;28;20109;-79
2022/08/30 00:54:17;;;;;;;5.68;2.22;;;;;;;;;;4978438;28;20042;-79
2022/08/30 00:56:42;;;;;;;4.75;2.03;;;;;;;;;;4979010;28;20065;-79
2022/08/30 00:59:08;;;;;;;3.78;2.00;;;;;;;;;;4995220;28;20056;-79
2022/08/30 01:01:34;;;;;;;4.22;1.92;;;;;;;;;;4994765;28;20038;-79
2022/08/30 01:04:00;;;;;;;3.22;1.95;;;;;;;;;;4963158;28;20034;-79
2022/08/30 01:06:26;;;;;;;4.65;2.15;;;;;;;;;;4978291;28;20104;-79
2022/08/30 01:08:52;;;;;;;3.38;1.90;;;;;;;;;;4994881;28;20500;-79
2022/08/30 01:11:19;;;;;;;3.60;2.15;;;;;;;;;;4994776;28;20091;-79
2022/08/30 01:13:46;;;;;;;3.72;2.10;;;;;;;;;;4978331;28;20038;-80
2022/08/30 01:16:11;;;;;;;5.10;2.08;;;;;;;;;;4978652;28;20037;-79
2022/08/30 01:18:38;;;;;;;3.88;2.00;;;;;;;;;;4978265;28;20467;-80
2022/08/30 01:21:06;;;;;;;4.13;2.00;;;;;;;;;;4962346;28;20049;-79
2022/08/30 01:23:33;;;;;;;4.30;2.42;;;;;;;;;;5010568;28;20479;-79
2022/08/30 01:25:58;;;;;;;4.13;2.25;;;;;;;;;;4978283;28;20042;-79
2022/08/30 01:28:25;;;;;;;4.13;2.22;;;;;;;;;;4994606;28;20095;-80
2022/08/30 01:30:50;;;;;;;4.78;2.25;;;;;;;;;;4978018;28;20105;-79
2022/08/30 01:33:17;;;;;;;5.93;3.03;;;;;;;;;;4990724;28;20049;-80
2022/08/30 01:35:45;;;;;;;5.28;2.63;;;;;;;;;;4975092;28;20054;-79
2022/08/30 01:38:11;;;;;;;3.67;1.98;;;;;;;;;;4975030;28;20137;-80
2022/08/30 01:40:36;;;;;;;4.93;2.40;;;;;;;;;;4992457;28;20040;-79
2022/08/30 01:43:01;;;;;;;4.68;1.92;;;;;;;;;;5010491;28;20400;-79
2022/08/30 01:45:27;;;;;;;3.92;2.17;;;;;;;;;;4993324;28;20042;-79
2022/08/30 01:47:52;;;;;;;4.30;2.10;;;;;;;;;;5010280;28;20041;-79
2022/08/30 01:50:18;;;;;;;4.13;2.13;;;;;;;;;;5010172;28;20409;-79
2022/08/30 01:52:43;;;;;;;3.47;1.80;;;;;;;;;;5010005;28;20091;-79
2022/08/30 01:55:09;;;;;;;3.33;1.90;;;;;;;;;;5010455;28;20034;-80
2022/08/30 01:57:34;;;;;;;4.40;2.38;;;;;;;;;;5010489;28;20057;-79
2022/08/30 02:00:00;;;;;;;4.22;2.17;;;;;;;;;;5009949;28;20050;-80
2022/08/30 02:02:26;;;;;;;6.97;2.63;;;;;;;;;;4993622;28;20061;-79
2022/08/30 02:04:52;;;;;;;4.07;2.55;;;;;;;;;;4993975;28;20060;-79
2022/08/30 02:07:18;;;;;;;6.57;2.53;;;;;;;;;;5010554;28;20500;-79
2022/08/30 02:09:43;;;;;;;4.22;2.35;;;;;;;;;;4994018;28;20046;-79
2022/08/30 02:12:09;;;;;;;4.70;2.47;;;;;;;;;;4994102;28;20030;-79
2022/08/30 02:14:35;;;;;;;4.18;2.35;;;;;;;;;;4993603;28;20041;-80
2022/08/30 02:17:01;;;;;;;3.67;1.92;;;;;;;;;;5010494;28;20080;-80
2022/08/30 02:19:28;;;;;;;3.90;2.13;;;;;;;;;;5013577;28;20034;-79
2022/08/30 02:21:53;;;;;;;5.38;2.58;;;;;;;;;;4997823;28;20597;-79
2022/08/30 02:24:18;;;;;;;4.03;2.05;;;;;;;;;;4997964;28;20041;-80
2022/08/30 02:26:44;;;;;;;4.78;2.65;;;;;;;;;;4997980;28;20412;-79
2022/08/30 02:29:09;;;;;;;6.15;2.38;;;;;;;;;;4993746;28;20424;-80
2022/08/30 02:31:35;;;;;;;3.17;1.83;;;;;;;;;;4994088;28;20069;-79
2022/08/30 02:34:00;;;;;;;5.05;2.60;;;;;;;;;;5043723;28;20440;-82
2022/08/30 02:36:26;;;;;;;3.85;2.00;;;;;;;;;;5026722;28;20042;-79
2022/08/30 02:38:51;;;;;;;5.72;2.45;;;;;;;;;;5026991;28;20401;-79
2022/08/30 02:41:17;;;;;;;4.60;2.60;;;;;;;;;;5023240;28;20505;-79
2022/08/30 02:43:43;;;;;;;6.10;2.50;;;;;;;;;;4978139;28;20123;-79
2022/08/30 02:46:08;;;;;;;4.13;1.95;;;;;;;;;;5019465;28;20433;-79
2022/08/30 02:48:33;;;;;;;3.80;1.83;;;;;;;;;;4980849;28;20034;-79
2022/08/30 02:51:04;;;;;;;5.03;1.92;;;;;;;;;;4964942;28;20084;-79
2022/08/30 02:53:29;;;;;;;4.10;2.35;;;;;;;;;;4980948;28;20419;-79
2022/08/30 02:55:55;;;;;;;4.30;2.47;;;;;;;;;;4964990;28;20038;-79
2022/08/30 02:58:20;;;;;;;4.38;2.13;;;;;;;;;;4997025;28;20038;-79
2022/08/30 03:00:46;;;;;;;4.88;2.50;;;;;;;;;;4996434;28;20037;-79
2022/08/30 03:03:11;;;;;;;5.03;2.13;;;;;;;;;;4997205;28;20397;-79
2022/08/30 03:05:38;;;;;;;3.63;2.15;;;;;;;;;;4996772;28;20077;-79
2022/08/30 03:08:03;;;;;;;4.75;2.40;;;;;;;;;;4997478;28;20046;-79
2022/08/30 03:10:29;;;;;;;4.88;2.40;;;;;;;;;;4981001;28;20089;-79
2022/08/30 03:12:54;;;;;;;4.75;2.40;;;;;;;;;;5012921;28;20037;-79
2022/08/30 03:15:20;;;;;;;4.22;2.47;;;;;;;;;;4980828;28;20045;-79
2022/08/30 03:17:46;;;;;;;5.18;2.70;;;;;;;;;;4980987;28;20432;-79
2022/08/30 03:20:11;;;;;;;4.80;2.08;;;;;;;;;;4964228;28;20096;-79
2022/08/30 03:22:37;;;;;;;4.57;2.33;;;;;;;;;;4996163;28;20093;-79
2022/08/30 03:25:03;;;;;;;5.43;2.40;;;;;;;;;;5013032;28;20033;-79
2022/08/30 03:27:28;;;;;;;4.28;2.10;;;;;;;;;;4996452;28;20103;-79
2022/08/30 03:29:54;;;;;;;4.95;2.40;;;;;;;;;;5012969;28;20084;-79
2022/08/30 03:32:19;;;;;;;5.70;2.40;;;;;;;;;;5012620;28;20396;-79
2022/08/30 03:34:45;;;;;;;4.93;2.70;;;;;;;;;;4996195;28;20113;-79
2022/08/30 03:37:10;;;;;;;4.35;2.45;;;;;;;;;;5012486;28;20574;-79
2022/08/30 03:39:36;;;;;;;5.68;2.53;;;;;;;;;;5029408;28;20026;-80
2022/08/30 03:42:01;;;;;;;3.08;1.70;;;;;;;;;;5008950;28;20497;-79
2022/08/30 03:44:27;;;;;;;5.00;2.70;;;;;;;;;;4976947;28;20038;-79
2022/08/30 03:46:52;;;;;;;4.03;2.28;;;;;;;;;;5015037;28;20048;-79
2022/08/30 03:49:19;;;;;;;5.05;2.65;;;;;;;;;;4996368;28;20424;-79
2022/08/30 03:51:44;;;;;;;5.55;2.25;;;;;;;;;;4996155;28;20509;-79
2022/08/30 03:54:10;;;;;;;5.88;2.03;;;;;;;;;;4979639;28;20042;-80
2022/08/30 03:56:35;;;;;;;5.80;2.35;;;;;;;;;;4995679;28;20037;-79
2022/08/30 03:59:01;;;;;;;4.60;2.42;;;;;;;;;;4980172;28;20041;-79
2022/08/30 04:01:26;;;;;;;6.47;1.85;;;;;;;;;;5011736;28;20040;-79
2022/08/30 04:03:52;;;;;;;3.30;2.13;;;;;;;;;;4995734;28;20042;-79
2022/08/30 04:06:17;;;;;;;5.35;2.78;;;;;;;;;;4995931;28;20041;-79
2022/08/30 04:08:44;;;;;;;4.05;2.10;;;;;;;;;;4996462;28;20057;-79
2022/08/30 04:11:10;;;;;;;5.60;2.55;;;;;;;;;;4996553;28;20052;-79
2022/08/30 04:13:35;;;;;;;4.63;2.28;;;;;;;;;;4979417;28;20034;-79
2022/08/30 04:16:01;;;;;;;6.38;2.90;;;;;;;;;;4995401;28;20065;-79
2022/08/30 04:18:27;;;;;;;6.57;2.92;;;;;;;;;;4979439;28;20412;-79
2022/08/30 04:20:52;;;;;;;4.68;2.60;;;;;;;;;;4995536;28;20416;-79
2022/08/30 04:23:18;;;;;;;6.30;2.40;;;;;;;;;;4995572;28;20817;-79
2022/08/30 04:25:43;;;;;;;3.55;2.10;;;;;;;;;;5011625;28;20065;-79
2022/08/30 04:28:09;;;;;;;4.80;2.13;;;;;;;;;;4995790;28;20053;-79
2022/08/30 04:30:38;;;;;;;8.57;2.97;;;;;;;;;;4995543;28;20038;-79
2022/08/30 04:33:04;;;;;;;5.68;2.70;;;;;;;;;;5028390;28;20520;-79
2022/08/30 04:35:29;;;;;;;4.95;2.25;;;;;;;;;;5011587;28;20069;-80
2022/08/30 04:37:55;;;;;;;4.68;2.60;;;;;;;;;;4995051;28;20053;-80
2022/08/30 04:40:20;;;;;;;4.55;2.15;;;;;;;;;;4995710;28;20420;-80
2022/08/30 04:42:46;;;;;;;5.38;2.95;;;;;;;;;;5007510;28;20413;-80
2022/08/30 04:45:14;;;;;;;4.90;2.65;;;;;;;;;;4994192;28;20043;-80
2022/08/30 04:47:40;;;;;;;4.22;2.60;;;;;;;;;;4978707;28;20037;-80
2022/08/30 04:50:07;;;;;;;4.45;2.55;;;;;;;;;;4979305;28;20401;-79
2022/08/30 04:52:32;;;;;;;6.15;2.60;;;;;;;;;;4994614;28;20048;-80
2022/08/30 04:54:58;;;;;;;5.28;2.47;;;;;;;;;;4994650;28;20042;-80
2022/08/30 04:57:24;;;;;;;6.05;2.55;;;;;;;;;;4979115;28;20408;-80
2022/08/30 04:59:49;;;;;;;6.22;2.85;;;;;;;;;;5011428;28;20042;-80
2022/08/30 05:02:14;;;;;;;6.20;2.65;;;;;;;;;;4978145;28;20057;-80
2022/08/30 05:05:38;;;;;;;5.03;2.92;;;;;;;;;;4978957;28;20396;-80
2022/08/30 05:07:25;;;;;;;6.13;2.70;;;;;;;;;;5010520;28;20129;-80
2022/08/30 05:09:51;;;;;;;4.55;2.75;;;;;;;;;;4990786;28;20416;-80
2022/08/30 05:12:16;;;;;;;5.15;2.95;;;;;;;;;;5024213;28;20413;-80
2022/08/30 05:14:42;;;;;;;4.30;2.38;;;;;;;;;;5026148;28;20416;-79
2022/08/30 05:17:07;;;;;;;5.07;2.47;;;;;;;;;;5010998;28;20048;-79
2022/08/30 05:19:33;;;;;;;5.25;2.38;;;;;;;;;;5026495;28;20522;-79
2022/08/30 05:21:59;;;;;;;6.00;3.40;;;;;;;;;;5010720;28;20094;-78
2022/08/30 05:24:24;;;;;;;15.73;3.70;;;;;;;;;;4994513;28;20065;-79
2022/08/30 05:26:50;;;;;;;9.82;3.35;;;;;;;;;;5010842;28;20033;-78
2022/08/30 05:29:15;;;;;;;8.80;3.25;;;;;;;;;;5009597;28;20404;-79
2022/08/30 05:31:42;;;;;;;11.35;3.67;;;;;;;;;;5010665;28;20401;-78
2022/08/30 05:34:07;;;;;;;7.63;3.67;;;;;;;;;;4977787;28;20022;-78
2022/08/30 05:36:34;;;;;;;8.00;3.47;;;;;;;;;;5010562;28;20048;-79
2022/08/30 05:38:59;;;;;;;6.03;3.05;;;;;;;;;;5010275;28;20049;-78
2022/08/30 05:41:25;;;;;;;7.05;3.30;;;;;;;;;;5010119;28;20057;-78
2022/08/30 05:43:57;;;;;;;10.10;4.35;;;;;;;;;;5009839;28;20110;-78
2022/08/30 05:46:23;;;;;;;7.70;3.53;;;;;;;;;;5006639;28;20038;-78
2022/08/30 05:48:48;;;;;;;9.02;3.63;;;;;;;;;;5009396;28;20037;-79
2022/08/30 05:51:19;;;;;;;9.25;3.22;;;;;;;;;;5010131;28;20408;-78
2022/08/30 05:53:44;;;;;;;7.30;3.35;;;;;;;;;;5008059;28;20034;-78
2022/08/30 05:56:16;;;;;;;7.43;3.08;;;;;;;;;;4994024;28;20642;-79
2022/08/30 05:58:41;;;;;;;9.27;3.17;;;;;;;;;;4978276;28;20444;-79
2022/08/30 06:01:07;;;;;;;5.07;3.28;;;;;;;;;;5010482;28;20042;-78
2022/08/30 06:03:33;;;;;;;7.30;3.55;;;;;;;;;;5009545;28;20511;-79
2022/08/30 06:05:59;;;;;;;8.38;3.85;;;;;;;;;;4992821;28;20107;-78
2022/08/30 06:08:24;;;;;;;8.65;3.80;;;;;;;;;;5008904;28;20034;-78
2022/08/30 06:10:50;;;;;;;8.98;3.13;;;;;;;;;;5008624;28;20041;-79
2022/08/30 06:13:16;;;;;;;7.13;3.33;;;;;;;;;;5010075;28;20492;-78
2022/08/30 06:15:45;;;;;;;13.25;3.97;;;;;;;;;;5010035;28;20042;-78
2022/08/30 06:18:11;;;;;;;10.82;3.42;;;;;;;;;;5010906;28;20034;-78
2022/08/30 06:20:46;;;;;;;11.27;4.05;;;;;;;;;;4992694;28;20046;-77
2022/08/30 06:23:11;;;;;;;8.27;3.10;;;;;;;;;;5010694;28;20061;-77
2022/08/30 06:25:37;;;;;;;12.52;3.35;;;;;;;;;;5009514;28;20500;-77
2022/08/30 06:28:04;;;;;;;6.68;3.92;;;;;;;;;;4993991;28;20041;-78
2022/08/30 06:30:29;;;;;;;6.68;3.67;;;;;;;;;;4993950;28;20129;-78
2022/08/30 06:32:55;;;;;;;9.50;3.55;;;;;;;;;;5009825;28;20037;-78
2022/08/30 06:35:20;;;;;;;7.43;3.55;;;;;;;;;;5009559;28;20065;-78
2022/08/30 06:37:45;;;;;;;7.45;3.65;;;;;;;;;;5026517;28;20451;-78
2022/08/30 06:40:12;;;;;;;7.47;3.13;;;;;;;;;;5009662;28;20037;-79
2022/08/30 06:42:38;;;;;;;6.30;3.08;;;;;;;;;;4976780;28;20519;-78
2022/08/30 06:45:04;;;;;;;8.02;3.30;;;;;;;;;;4992976;28;20113;-79
2022/08/30 06:47:29;;;;;;;8.57;3.50;;;;;;;;;;5008579;28;20362;-78
2022/08/30 06:49:56;;;;;;;8.75;3.53;;;;;;;;;;4976934;28;20026;-78
2022/08/30 06:52:21;;;;;;;7.55;3.00;;;;;;;;;;4961061;28;20038;-79
2022/08/30 06:54:46;;;;;;;7.28;3.53;;;;;;;;;;5009789;28;20038;-79
2022/08/30 06:57:12;;;;;;;10.30;3.90;;;;;;;;;;5008923;28;20500;-79
2022/08/30 06:59:38;;;;;;;14.45;6.05;;;;;;;;;;5008875;28;20386;-79
2022/08/30 07:02:04;;;;;;;16.65;6.63;;;;;;;;;;4992418;28;20030;-79
2022/08/30 07:04:30;;;;;;;16.52;6.28;;;;;;;;;;4961534;28;20140;-78
2022/08/30 07:06:55;;;;;;;17.75;5.70;;;;;;;;;;4978476;28;20451;-77
2022/08/30 07:09:20;;;;;;;10.18;5.25;;;;;;;;;;4994486;28;20580;-77
2022/08/30 07:11:46;;;;;;;13.65;4.45;;;;;;;;;;5012400;28;20041;-77
2022/08/30 07:14:11;;;;;;;18.25;5.20;;;;;;;;;;4996944;28;20165;-77
2022/08/30 07:16:37;;;;;;;12.23;4.40;;;;;;;;;;4994570;28;20040;-78
2022/08/30 07:19:03;;;;;;;11.80;4.28;;;;;;;;;;5010474;28;20045;-78
2022/08/30 07:21:32;;;;;;;11.10;4.50;;;;;;;;;;5011288;28;20033;-78
2022/08/30 07:23:58;;;;;;;9.88;4.40;;;;;;;;;;4999433;28;20052;-78
2022/08/30 07:26:29;;;;;;;13.57;4.45;;;;;;;;;;4985260;28;20058;-78
2022/08/30 07:28:55;;;;;;;12.23;5.13;;;;;;;;;;4980667;28;20504;-77
2022/08/30 07:31:20;;;;;;;8.75;4.00;;;;;;;;;;4963718;28;20033;-78
2022/08/30 07:33:46;;;;;;;8.98;4.15;;;;;;;;;;4996164;28;20034;-78
2022/08/30 07:36:11;;;;;;;11.15;5.43;;;;;;;;;;4980523;28;20045;-78
2022/08/30 07:38:37;;;;;;;8.57;4.40;;;;;;;;;;4996468;28;20030;-78
2022/08/30 07:41:03;;;;;;;10.95;4.38;;;;;;;;;;4980173;28;20037;-78
2022/08/30 07:43:32;;;;;;;10.13;3.90;;;;;;;;;;5011864;28;20041;-78
2022/08/30 07:46:02;;;;;;;11.23;4.63;;;;;;;;;;4993319;28;20121;-79
2022/08/30 07:48:27;;;;;;;9.80;4.72;;;;;;;;;;4963602;28;20029;-78
2022/08/30 07:50:53;;;;;;;16.48;4.50;;;;;;;;;;5011749;28;20092;-78
2022/08/30 07:53:18;;;;;;;11.02;4.22;;;;;;;;;;4963874;28;20499;-78
2022/08/30 07:55:44;;;;;;;9.88;3.88;;;;;;;;;;5012990;28;20042;-79
2022/08/30 07:58:09;;;;;;;8.20;4.68;;;;;;;;;;4996218;28;20121;-78
2022/08/30 08:00:35;;;;;;;11.23;4.13;;;;;;;;;;5012568;28;20065;-78
2022/08/30 08:03:06;;;;;;;12.50;4.60;;;;;;;;;;4978884;28;20124;-78
2022/08/30 08:05:35;;;;;;;12.10;4.20;;;;;;;;;;4996349;28;20044;-77
2022/08/30 08:08:01;;;;;;;10.15;4.40;;;;;;;;;;4980399;28;20075;-77
2022/08/30 08:10:26;;;;;;;11.90;5.07;;;;;;;;;;5012574;28;20086;-77
2022/08/30 08:12:52;;;;;;;8.02;3.70;;;;;;;;;;5011931;28;20381;-77
2022/08/30 08:15:17;;;;;;;10.98;3.97;;;;;;;;;;5011436;28;20478;-77
2022/08/30 08:17:43;;;;;;;15.57;3.83;;;;;;;;;;4978682;28;20037;-77
2022/08/30 08:20:08;;;;;;;12.60;3.95;;;;;;;;;;4995548;28;20131;-78
2022/08/30 08:22:34;;;;;;;11.25;4.10;;;;;;;;;;5028931;28;20373;-78
2022/08/30 08:25:00;;;;;;;9.23;3.33;;;;;;;;;;4995915;28;20381;-78
2022/08/30 08:27:25;;;;;;;9.77;3.88;;;;;;;;;;4979910;28;20172;-78
2022/08/30 08:29:51;;;;;;;11.15;3.17;;;;;;;;;;5003173;28;20108;-78
2022/08/30 08:32:16;;;;;;;7.13;3.35;;;;;;;;;;5021303;28;20528;-78
2022/08/30 08:34:41;;;;;;;9.48;3.45;;;;;;;;;;5029845;28;20037;-78
2022/08/30 08:37:07;;;;;;;7.43;3.13;;;;;;;;;;5003583;28;20112;-78
2022/08/30 08:39:32;;;;;;;11.18;3.88;;;;;;;;;;5020092;28;20034;-78
2022/08/30 08:41:58;;;;;;;7.88;2.85;;;;;;;;;;5002551;28;20065;-78
2022/08/30 08:44:47;;;;;;;6.85;2.67;;;;;;;;;;5018498;28;20459;-78
2022/08/30 08:47:17;;;;;;;7.97;3.15;;;;;;;;;;5014755;28;20081;-79
2022/08/30 08:49:44;;;;;;;6.32;2.58;;;;;;;;;;5003658;28;20053;-79
2022/08/30 08:55:00;;;;;;;8.98;2.42;;;;;;;;;;5014272;28;20100;-79
2022/08/30 08:57:28;;;;;;;4.95;1.92;;;;;;;;;;5015191;28;20076;-79
2022/08/30 08:59:53;;;;;;;5.22;2.38;;;;;;;;;;4962617;28;20128;-79
2022/08/30 09:02:24;;;;;;;6.65;2.35;;;;;;;;;;4994489;28;20048;-79
2022/08/30 09:04:50;;;;;;;7.85;2.38;;;;;;;;;;4995232;28;20572;-79
2022/08/30 09:07:21;;;;;;;5.75;2.35;;;;;;;;;;4962461;28;20117;-79
2022/08/30 09:09:46;;;;;;;5.63;2.08;;;;;;;;;;4995104;28;20048;-79
2022/08/30 09:12:12;;;;;;;3.83;2.08;;;;;;;;;;4979008;28;20033;-78
2022/08/30 09:14:39;;;;;;;8.88;2.10;;;;;;;;;;5018973;28;20396;-78
2022/08/30 09:17:09;;;;;;;5.82;2.10;;;;;;;;;;5000246;28;20493;-78
2022/08/30 09:19:57;;;;;;;4.28;1.80;;;;;;;;;;5020841;28;20463;-78
2022/08/30 09:22:39;;;;;;;5.47;2.10;;;;;;;;;;5038203;28;20053;-78
2022/08/30 09:25:07;;;;;;;3.22;1.83;;;;;;;;;;5014511;28;20061;-78
2022/08/30 09:27:34;;;;;;;5.57;1.73;;;;;;;;;;5014500;28;20033;-78
2022/08/30 09:30:22;;;;;;;8.65;2.25;;;;;;;;;;5014054;28;20041;-78
2022/08/30 09:32:55;;;;;;;6.20;1.88;;;;;;;;;;5014975;28;20026;-78
2022/08/30 09:35:23;;;;;;;5.63;1.63;;;;;;;;;;5013885;28;20056;-78
2022/08/30 09:37:56;;;;;;;5.25;1.98;;;;;;;;;;5030744;28;20033;-79
2022/08/30 09:40:31;;;;;;;6.72;1.95;;;;;;;;;;5014488;28;20052;-78
2022/08/30 09:43:02;;;;;;;4.68;2.00;;;;;;;;;;4993768;28;20041;-79
2022/08/30 09:45:38;;;;;;;6.55;2.50;;;;;;;;;;4990854;28;20038;-79
2022/08/30 09:48:26;;;;;;;5.40;2.25;;;;;;;;;;5005208;28;20042;-78
2022/08/30 09:51:11;;;;;;;6.55;2.42;;;;;;;;;;5007349;28;20505;-79
2022/08/30 09:54:26;;;;;;;3.85;1.80;;;;;;;;;;5016560;28;20033;-79
2022/08/30 09:57:37;;;;;;;5.35;1.95;;;;;;;;;;5005786;28;20046;-79
2022/08/30 10:00:12;;;;;;;7.05;2.45;;;;;;;;;;4934834;28;20042;-79
2022/08/30 10:02:46;;;;;;;5.07;2.00;;;;;;;;;;5020031;28;20424;-79
2022/08/30 10:05:37;;;;;;;5.60;1.83;;;;;;;;;;5011330;28;20037;-79
2022/08/30 10:08:22;;;;;;;4.28;1.98;;;;;;;;;;5010562;28;20041;-79
2022/08/30 10:10:58;;;;;;;9.35;2.20;;;;;;;;;;5045681;28;20037;-78
2022/08/30 10:13:52;;;;;;;4.85;1.80;;;;;;;;;;5010147;28;20392;-79
2022/08/30 10:16:20;;;;;;;7.70;2.35;;;;;;;;;;5026617;28;20038;-79
2022/08/30 10:19:28;;;;;;;7.53;2.13;;;;;;;;;;5026169;28;20029;-79
2022/08/30 10:21:58;;;;;;;4.95;1.83;;;;;;;;;;5000042;28;20041;-79
2022/08/30 10:24:25;;;;;;;7.32;2.53;;;;;;;;;;4993964;28;20072;-79
2022/08/30 10:27:09;;;;;;;5.72;2.28;;;;;;;;;;4994024;28;20033;-79
2022/08/30 10:29:40;;;;;;;6.93;2.55;;;;;;;;;;4994686;28;20037;-79
2022/08/30 10:32:09;;;;;;;6.18;1.92;;;;;;;;;;4977733;28;20121;-79
2022/08/30 10:34:39;;;;;;;7.63;2.70;;;;;;;;;;5010286;28;20076;-78
2022/08/30 10:37:20;;;;;;;5.75;2.03;;;;;;;;;;4993990;28;20045;-78
2022/08/30 10:39:47;;;;;;;7.65;2.47;;;;;;;;;;5012229;28;20083;-79
2022/08/30 10:42:32;;;;;;;6.03;2.45;;;;;;;;;;4997324;28;20084;-79
2022/08/30 10:45:07;;;;;;;4.50;1.90;;;;;;;;;;5013972;28;20057;-79
2022/08/30 10:48:00;;;;;;;4.82;1.90;;;;;;;;;;4981904;28;20128;-78
2022/08/30 10:50:33;;;;;;;8.52;2.03;;;;;;;;;;5013829;28;20026;-79
2022/08/30 10:53:20;;;;;;;7.75;2.10;;;;;;;;;;4997707;28;20513;-79
2022/08/30 10:56:06;;;;;;;5.03;2.10;;;;;;;;;;4981454;28;20033;-79
2022/08/30 10:58:31;;;;;;;4.88;2.20;;;;;;;;;;4981630;28;20039;-78
2022/08/30 11:01:22;;;;;;;4.72;2.00;;;;;;;;;;4980819;28;20471;-79
2022/08/30 11:04:03;;;;;;;6.60;2.28;;;;;;;;;;5013250;28;20125;-79
2022/08/30 11:07:09;;;;;;;5.28;1.75;;;;;;;;;;5013818;28;20129;-80
2022/08/30 11:09:43;;;;;;;6.35;2.00;;;;;;;;;;5013107;28;20041;-79
2022/08/30 11:12:28;;;;;;;6.93;2.45;;;;;;;;;;5013356;28;20073;-79
2022/08/30 11:14:53;;;;;;;4.57;1.90;;;;;;;;;;5013404;28;20030;-79
2022/08/30 11:17:28;;;;;;;7.55;1.88;;;;;;;;;;4968149;28;20527;-79
2022/08/30 11:19:55;;;;;;;5.15;1.90;;;;;;;;;;5006159;28;20052;-79
2022/08/30 11:22:26;;;;;;;5.28;1.60;;;;;;;;;;4989075;28;20030;-79
2022/08/30 11:25:07;;;;;;;5.40;1.70;;;;;;;;;;4989123;28;20079;-79
2022/08/30 11:27:50;;;;;;;5.35;1.85;;;;;;;;;;5001361;28;20041;-79
2022/08/30 11:30:25;;;;;;;4.45;2.47;;;;;;;;;;5005552;28;20085;-79
2022/08/30 11:33:08;;;;;;;5.13;1.98;;;;;;;;;;5009474;28;20081;-80
2022/08/30 11:35:41;;;;;;;5.93;2.00;;;;;;;;;;5014345;28;20103;-78
2022/08/30 11:38:16;;;;;;;4.90;1.95;;;;;;;;;;4996378;28;20125;-79
2022/08/30 11:40:47;;;;;;;6.97;2.00;;;;;;;;;;4997047;28;20115;-78
2022/08/30 11:43:33;;;;;;;5.95;1.95;;;;;;;;;;5012839;28;20076;-79
2022/08/30 11:46:23;;;;;;;4.15;1.65;;;;;;;;;;5022620;28;20193;-79
2022/08/30 11:48:51;;;;;;;7.40;2.10;;;;;;;;;;4996371;28;20070;-78
2022/08/30 11:51:37;;;;;;;4.20;1.95;;;;;;;;;;4979303;28;20392;-79
2022/08/30 11:54:05;;;;;;;3.35;1.90;;;;;;;;;;4980996;28;20045;-79
2022/08/30 11:56:41;;;;;;;6.70;2.05;;;;;;;;;;5012577;28;20048;-79
2022/08/30 11:59:22;;;;;;;7.03;2.47;;;;;;;;;;5012986;28;20385;-80
2022/08/30 12:01:48;;;;;;;5.22;2.45;;;;;;;;;;4978404;28;20038;-80
2022/08/30 12:04:16;;;;;;;4.95;2.45;;;;;;;;;;5021994;28;20148;-80
2022/08/30 12:06:48;;;;;;;5.45;2.20;;;;;;;;;;5018961;28;20523;-80
2022/08/30 12:09:22;;;;;;;5.47;2.05;;;;;;;;;;4989778;28;20500;-80
2022/08/30 12:11:53;;;;;;;5.13;1.90;;;;;;;;;;5014526;28;20535;-79
2022/08/30 12:14:37;;;;;;;6.88;2.00;;;;;;;;;;4995935;28;20049;-80
2022/08/30 12:20:16;;;;;;;4.45;1.88;;;;;;;;;;5021677;28;20042;-80
2022/08/30 12:22:42;;;;;;;6.03;1.67;;;;;;;;;;5001225;28;20064;-79
2022/08/30 12:25:19;;;;;;;4.68;2.08;;;;;;;;;;5032208;28;20076;-79
2022/08/30 12:27:44;;;;;;;6.20;2.45;;;;;;;;;;4999755;28;20095;-80
2022/08/30 12:30:10;;;;;;;5.05;1.90;;;;;;;;;;5032161;28;20411;-79
2022/08/30 12:32:43;;;;;;;5.13;2.22;;;;;;;;;;5014855;28;20033;-79
2022/08/30 12:35:15;;;;;;;7.43;2.70;;;;;;;;;;4999262;28;20466;-80
2022/08/30 12:37:41;;;;;;;3.80;1.80;;;;;;;;;;5015957;28;20545;-80
2022/08/30 12:40:06;;;;;;;6.88;1.90;;;;;;;;;;5031264;28;20120;-80
2022/08/30 12:42:37;;;;;;;6.13;1.90;;;;;;;;;;5013626;28;20042;-80
2022/08/30 12:45:23;;;;;;;4.97;1.80;;;;;;;;;;4995805;28;20042;-80
2022/08/30 12:47:55;;;;;;;4.50;1.90;;;;;;;;;;5013251;28;20038;-80
2022/08/30 12:50:25;;;;;;;6.38;1.85;;;;;;;;;;5015042;28;20041;-80
2022/08/30 12:53:05;;;;;;;5.60;2.33;;;;;;;;;;5014386;28;20040;-80
2022/08/30 12:55:33;;;;;;;8.77;2.20;;;;;;;;;;5011176;28;20452;-79
2022/08/30 12:57:58;;;;;;;4.30;2.13;;;;;;;;;;4995447;28;20026;-79
2022/08/30 13:00:32;;;;;;;5.10;1.70;;;;;;;;;;5011610;28;20053;-79
2022/08/30 13:03:05;;;;;;;5.47;2.00;;;;;;;;;;4994096;28;20048;-79
2022/08/30 13:05:41;;;;;;;4.10;2.17;;;;;;;;;;4979195;28;20045;-79
2022/08/30 13:08:15;;;;;;;4.43;2.60;;;;;;;;;;5017159;28;20084;-79
2022/08/30 13:11:01;;;;;;;4.95;2.17;;;;;;;;;;5001231;28;20045;-79
2022/08/30 13:13:33;;;;;;;4.45;2.08;;;;;;;;;;4994992;28;20168;-78
2022/08/30 13:16:17;;;;;;;7.13;2.47;;;;;;;;;;5018826;28;20044;-79
2022/08/30 13:18:43;;;;;;;6.47;2.38;;;;;;;;;;5018590;28;20084;-79
2022/08/30 13:21:25;;;;;;;4.30;1.65;;;;;;;;;;4987359;28;20447;-79
2022/08/30 13:23:55;;;;;;;4.50;1.90;;;;;;;;;;5024700;28;20036;-79
2022/08/30 13:26:21;;;;;;;5.05;2.10;;;;;;;;;;5014119;28;20052;-79
2022/08/30 13:28:57;;;;;;;6.05;2.10;;;;;;;;;;5014377;28;20029;-80
2022/08/30 13:31:24;;;;;;;4.93;1.85;;;;;;;;;;4998182;28;20511;-79
2022/08/30 13:33:52;;;;;;;5.05;2.17;;;;;;;;;;5014253;28;20042;-79
2022/08/30 13:36:19;;;;;;;4.85;2.15;;;;;;;;;;5030465;28;20116;-79
2022/08/30 13:38:44;;;;;;;7.85;2.15;;;;;;;;;;5014101;28;20095;-79
2022/08/30 13:41:09;;;;;;;3.58;1.90;;;;;;;;;;5024144;28;20508;-79
2022/08/30 13:43:35;;;;;;;5.65;2.30;;;;;;;;;;4978048;28;20441;-78
2022/08/30 13:46:01;;;;;;;4.82;1.95;;;;;;;;;;4982318;28;20045;-79
2022/08/30 13:48:26;;;;;;;4.57;1.67;;;;;;;;;;5018566;28;20061;-79
2022/08/30 13:50:52;;;;;;;6.15;1.80;;;;;;;;;;4987085;28;20041;-80
2022/08/30 13:53:18;;;;;;;3.83;1.70;;;;;;;;;;5014164;28;20041;-79
2022/08/30 13:55:43;;;;;;;5.40;1.90;;;;;;;;;;4961940;28;20046;-79
2022/08/30 13:58:09;;;;;;;4.72;2.08;;;;;;;;;;4994434;28;20099;-79
2022/08/30 14:00:34;;;;;;;5.05;2.58;;;;;;;;;;4982369;28;20064;-79
2022/08/30 14:03:00;;;;;;;5.65;2.83;;;;;;;;;;4986141;28;20512;-79
2022/08/30 14:05:33;;;;;;;6.88;3.15;;;;;;;;;;5023684;28;20040;-80
2022/08/30 14:07:59;;;;;;;5.68;3.13;;;;;;;;;;5006036;28;20385;-79
2022/08/30 14:10:25;;;;;;;5.00;2.25;;;;;;;;;;5020592;28;20045;-80
2022/08/30 14:12:51;;;;;;;5.00;2.15;;;;;;;;;;4982138;28;20057;-79
2022/08/30 14:15:16;;;;;;;6.05;2.05;;;;;;;;;;4995085;28;20083;-80
2022/08/30 14:17:42;;;;;;;7.75;1.98;;;;;;;;;;5009758;28;20030;-79
2022/08/30 14:20:08;;;;;;;8.18;2.60;;;;;;;;;;5034013;28;20091;-79
2022/08/30 14:22:33;;;;;;;8.82;2.35;;;;;;;;;;5001326;28;20059;-79
2022/08/30 14:25:00;;;;;;;4.93;2.22;;;;;;;;;;5014823;28;20046;-80
2022/08/30 14:27:26;;;;;;;6.07;2.10;;;;;;;;;;5006064;28;20564;-79
2022/08/30 14:29:52;;;;;;;5.32;1.88;;;;;;;;;;5001506;28;20044;-79
2022/08/30 14:32:17;;;;;;;6.90;2.45;;;;;;;;;;5032974;28;20041;-79
2022/08/30 14:34:43;;;;;;;6.75;2.65;;;;;;;;;;5029522;28;20045;-79
2022/08/30 14:37:08;;;;;;;7.15;2.63;;;;;;;;;;4981521;28;20034;-79
2022/08/30 14:39:34;;;;;;;4.07;2.10;;;;;;;;;;5013780;28;20048;-79
2022/08/30 14:41:59;;;;;;;8.32;2.50;;;;;;;;;;4997283;28;20113;-79
2022/08/30 14:44:25;;;;;;;6.15;2.13;;;;;;;;;;4997562;28;20413;-79
2022/08/30 14:46:50;;;;;;;5.13;2.22;;;;;;;;;;5015637;28;20033;-79
2022/08/30 14:49:16;;;;;;;4.85;2.25;;;;;;;;;;4987801;28;20038;-80
2022/08/30 14:51:41;;;;;;;6.80;2.45;;;;;;;;;;5014363;28;20034;-79
2022/08/30 14:54:07;;;;;;;5.07;2.35;;;;;;;;;;4980529;28;20034;-79
2022/08/30 14:56:33;;;;;;;5.50;2.38;;;;;;;;;;4980889;28;20114;-79
2022/08/30 14:59:01;;;;;;;4.15;2.33;;;;;;;;;;4996552;28;20054;-79